Butte Des Morts, Wisconsin
Current Conditions -  °F | °C
As of 4:02 AM on Saturday 25 Oct 2014 (Local Time) from KOSH Reporting Station
Haze Haze  
Wind Chill: 56°   Ceiling: 500
Heat Index: 56°   Visibility: 4mi
Dew Point: 54°   Wind: 10mph
Humidity: 93%   Direction: 280°W
Pressure: 29.84"   Gusts: NA
Location:  44.1°N, 88.65°W
Report Text: KOSH 250902Z 28009KT 4SM BR OVC005 13/12 A2984 RMK AO2 T01330122
Loading
Personal Weather Stations






























Interactive Weather Map
Tropical Storm Tracking
New forecast layout! Learn more

10-Day Weather Forecast

Advertisements
Track Severe Weather on mobile